sensor_id;sensor_type;location;lat;lon;timestamp;temperature;humidity
55812;DHT22;41742;52.048;6.092;2022-08-19T00:00:35;18.00;99.90
55812;DHT22;41742;52.048;6.092;2022-08-19T00:03:02;18.00;99.90
55812;DHT22;41742;52.048;6.092;2022-08-19T00:05:28;18.00;99.90
55812;DHT22;41742;52.048;6.092;2022-08-19T00:07:54;18.00;99.90
55812;DHT22;41742;52.048;6.092;2022-08-19T00:10:20;18.00;99.90
55812;DHT22;41742;52.048;6.092;2022-08-19T00:12:47;17.90;99.90
55812;DHT22;41742;52.048;6.092;2022-08-19T00:15:15;17.90;99.90
55812;DHT22;41742;52.048;6.092;2022-08-19T00:17:42;17.90;99.90
55812;DHT22;41742;52.048;6.092;2022-08-19T00:20:11;17.80;99.90
55812;DHT22;41742;52.048;6.092;2022-08-19T00:22:38;17.80;99.90
55812;DHT22;41742;52.048;6.092;2022-08-19T00:25:07;17.80;99.90
55812;DHT22;41742;52.048;6.092;2022-08-19T00:27:34;17.70;99.90
55812;DHT22;41742;52.048;6.092;2022-08-19T00:30:00;17.70;99.90
55812;DHT22;41742;52.048;6.092;2022-08-19T00:32:27;17.60;99.90
55812;DHT22;41742;52.048;6.092;2022-08-19T00:34:53;17.60;99.90
55812;DHT22;41742;52.048;6.092;2022-08-19T00:37:21;17.60;99.90
55812;DHT22;41742;52.048;6.092;2022-08-19T00:39:48;17.50;99.90
55812;DHT22;41742;52.048;6.092;2022-08-19T00:42:14;17.50;99.90
55812;DHT22;41742;52.048;6.092;2022-08-19T00:44:41;17.60;99.90
55812;DHT22;41742;52.048;6.092;2022-08-19T00:47:06;17.50;99.90
55812;DHT22;41742;52.048;6.092;2022-08-19T00:49:36;17.50;99.90
55812;DHT22;41742;52.048;6.092;2022-08-19T00:52:11;17.50;99.90
55812;DHT22;41742;52.048;6.092;2022-08-19T00:54:38;17.50;99.90
55812;DHT22;41742;52.048;6.092;2022-08-19T00:57:08;17.50;99.90
55812;DHT22;41742;52.048;6.092;2022-08-19T00:59:36;17.50;99.90
55812;DHT22;41742;52.048;6.092;2022-08-19T01:02:04;17.40;99.90
55812;DHT22;41742;52.048;6.092;2022-08-19T01:04:30;17.40;99.90
55812;DHT22;41742;52.048;6.092;2022-08-19T01:06:56;17.40;99.90
55812;DHT22;41742;52.048;6.092;2022-08-19T01:09:22;17.30;99.90
55812;DHT22;41742;52.048;6.092;2022-08-19T01:11:48;17.30;99.90
55812;DHT22;41742;52.048;6.092;2022-08-19T01:14:15;17.30;99.90
55812;DHT22;41742;52.048;6.092;2022-08-19T01:16:42;17.30;99.90
55812;DHT22;41742;52.048;6.092;2022-08-19T01:19:16;17.20;99.90
55812;DHT22;41742;52.048;6.092;2022-08-19T01:24:37;17.10;99.90
55812;DHT22;41742;52.048;6.092;2022-08-19T01:27:05;17.10;99.90
55812;DHT22;41742;52.048;6.092;2022-08-19T01:29:31;17.00;99.90
55812;DHT22;41742;52.048;6.092;2022-08-19T01:31:57;17.00;99.90
55812;DHT22;41742;52.048;6.092;2022-08-19T01:34:24;17.00;99.90
55812;DHT22;41742;52.048;6.092;2022-08-19T01:36:50;16.90;99.90
55812;DHT22;41742;52.048;6.092;2022-08-19T01:39:22;16.90;99.90
55812;DHT22;41742;52.048;6.092;2022-08-19T01:41:49;16.90;99.90
55812;DHT22;41742;52.048;6.092;2022-08-19T01:44:15;16.80;99.90
55812;DHT22;41742;52.048;6.092;2022-08-19T01:46:42;16.80;99.90
55812;DHT22;41742;52.048;6.092;2022-08-19T01:49:09;16.80;99.90
55812;DHT22;41742;52.048;6.092;2022-08-19T01:51:36;16.90;99.90
55812;DHT22;41742;52.048;6.092;2022-08-19T01:54:02;16.90;99.90
55812;DHT22;41742;52.048;6.092;2022-08-19T01:56:28;16.90;99.90
55812;DHT22;41742;52.048;6.092;2022-08-19T01:58:59;16.90;99.90
55812;DHT22;41742;52.048;6.092;2022-08-19T02:01:25;16.80;99.90
55812;DHT22;41742;52.048;6.092;2022-08-19T02:03:51;16.80;99.90
55812;DHT22;41742;52.048;6.092;2022-08-19T02:06:18;16.80;99.90
55812;DHT22;41742;52.048;6.092;2022-08-19T02:08:44;16.70;99.90
55812;DHT22;41742;52.048;6.092;2022-08-19T02:11:19;16.70;99.90
55812;DHT22;41742;52.048;6.092;2022-08-19T02:13:46;16.70;99.90
55812;DHT22;41742;52.048;6.092;2022-08-19T02:16:12;16.70;99.90
55812;DHT22;41742;52.048;6.092;2022-08-19T02:18:37;16.70;99.90
55812;DHT22;41742;52.048;6.092;2022-08-19T02:21:03;16.70;99.90
55812;DHT22;41742;52.048;6.092;2022-08-19T02:23:29;16.70;99.90
55812;DHT22;41742;52.048;6.092;2022-08-19T02:25:56;16.70;99.90
55812;DHT22;41742;52.048;6.092;2022-08-19T02:28:22;16.60;99.90
55812;DHT22;41742;52.048;6.092;2022-08-19T02:30:48;16.50;99.90
55812;DHT22;41742;52.048;6.092;2022-08-19T02:33:14;16.60;99.90
55812;DHT22;41742;52.048;6.092;2022-08-19T02:35:44;16.50;99.90
55812;DHT22;41742;52.048;6.092;2022-08-19T02:38:10;16.50;99.90
55812;DHT22;41742;52.048;6.092;2022-08-19T02:40:54;16.40;99.90
55812;DHT22;41742;52.048;6.092;2022-08-19T02:43:20;16.40;99.90
55812;DHT22;41742;52.048;6.092;2022-08-19T02:45:47;16.30;99.90
55812;DHT22;41742;52.048;6.092;2022-08-19T02:48:18;16.30;99.90
55812;DHT22;41742;52.048;6.092;2022-08-19T02:50:44;16.30;99.90
55812;DHT22;41742;52.048;6.092;2022-08-19T02:53:10;16.30;99.90
55812;DHT22;41742;52.048;6.092;2022-08-19T02:55:41;16.30;99.90
55812;DHT22;41742;52.048;6.092;2022-08-19T02:58:08;16.40;99.90
55812;DHT22;41742;52.048;6.092;2022-08-19T03:00:33;16.40;99.90
55812;DHT22;41742;52.048;6.092;2022-08-19T03:02:59;16.30;99.90
55812;DHT22;41742;52.048;6.092;2022-08-19T03:05:25;16.30;99.90
55812;DHT22;41742;52.048;6.092;2022-08-19T03:07:52;16.30;99.90
55812;DHT22;41742;52.048;6.092;2022-08-19T03:10:18;16.30;99.90
55812;DHT22;41742;52.048;6.092;2022-08-19T03:12:44;16.20;99.90
55812;DHT22;41742;52.048;6.092;2022-08-19T03:15:11;16.20;99.90
55812;DHT22;41742;52.048;6.092;2022-08-19T03:17:37;16.10;99.90
55812;DHT22;41742;52.048;6.092;2022-08-19T03:20:03;16.10;99.90
55812;DHT22;41742;52.048;6.092;2022-08-19T03:22:29;16.10;99.90
55812;DHT22;41742;52.048;6.092;2022-08-19T03:24:55;16.00;99.90
55812;DHT22;41742;52.048;6.092;2022-08-19T03:27:21;16.00;99.90
55812;DHT22;41742;52.048;6.092;2022-08-19T03:29:47;16.00;99.90
55812;DHT22;41742;52.048;6.092;2022-08-19T03:32:13;15.90;99.90
55812;DHT22;41742;52.048;6.092;2022-08-19T03:34:39;16.00;99.90
55812;DHT22;41742;52.048;6.092;2022-08-19T03:37:07;16.00;99.90
55812;DHT22;41742;52.048;6.092;2022-08-19T03:39:35;16.00;99.90
55812;DHT22;41742;52.048;6.092;2022-08-19T03:42:01;16.00;99.90
55812;DHT22;41742;52.048;6.092;2022-08-19T03:44:28;16.00;99.90
55812;DHT22;41742;52.048;6.092;2022-08-19T03:46:56;16.00;99.90
55812;DHT22;41742;52.048;6.092;2022-08-19T03:49:25;16.00;99.90
55812;DHT22;41742;52.048;6.092;2022-08-19T03:51:54;15.90;99.90
55812;DHT22;41742;52.048;6.092;2022-08-19T03:54:21;15.90;99.90
55812;DHT22;41742;52.048;6.092;2022-08-19T03:56:50;15.80;99.90
55812;DHT22;41742;52.048;6.092;2022-08-19T03:59:31;15.70;99.90
55812;DHT22;41742;52.048;6.092;2022-08-19T04:01:59;15.80;99.90
55812;DHT22;41742;52.048;6.092;2022-08-19T04:04:25;15.80;99.90
55812;DHT22;41742;52.048;6.092;2022-08-19T04:06:52;15.80;99.90
55812;DHT22;41742;52.048;6.092;2022-08-19T04:09:18;15.80;99.90
55812;DHT22;41742;52.048;6.092;2022-08-19T04:11:47;15.80;99.90
55812;DHT22;41742;52.048;6.092;2022-08-19T04:14:16;15.80;99.90
55812;DHT22;41742;52.048;6.092;2022-08-19T04:16:42;15.70;99.90
55812;DHT22;41742;52.048;6.092;2022-08-19T04:19:09;15.60;99.90
55812;DHT22;41742;52.048;6.092;2022-08-19T04:21:35;15.60;99.90
55812;DHT22;41742;52.048;6.092;2022-08-19T04:24:02;15.60;99.90
55812;DHT22;41742;52.048;6.092;2022-08-19T04:26:30;15.60;99.90
55812;DHT22;41742;52.048;6.092;2022-08-19T04:28:58;15.60;99.90
55812;DHT22;41742;52.048;6.092;2022-08-19T04:31:27;15.70;99.90
55812;DHT22;41742;52.048;6.092;2022-08-19T04:33:54;15.70;99.90
55812;DHT22;41742;52.048;6.092;2022-08-19T04:36:24;15.70;99.90
55812;DHT22;41742;52.048;6.092;2022-08-19T04:38:54;15.60;99.90
55812;DHT22;41742;52.048;6.092;2022-08-19T04:41:20;15.50;99.90
55812;DHT22;41742;52.048;6.092;2022-08-19T04:44:04;15.50;99.90
55812;DHT22;41742;52.048;6.092;2022-08-19T04:46:30;15.50;99.90
55812;DHT22;41742;52.048;6.092;2022-08-19T04:49:01;15.50;99.90
55812;DHT22;41742;52.048;6.092;2022-08-19T04:51:27;15.50;99.90
55812;DHT22;41742;52.048;6.092;2022-08-19T04:53:53;15.60;99.90
55812;DHT22;41742;52.048;6.092;2022-08-19T04:56:20;15.60;99.90
55812;DHT22;41742;52.048;6.092;2022-08-19T04:58:48;15.50;99.90
55812;DHT22;41742;52.048;6.092;2022-08-19T05:01:22;15.40;99.90
55812;DHT22;41742;52.048;6.092;2022-08-19T05:03:48;15.40;99.90
55812;DHT22;41742;52.048;6.092;2022-08-19T05:06:16;15.40;99.90
55812;DHT22;41742;52.048;6.092;2022-08-19T05:08:44;15.40;99.90
55812;DHT22;41742;52.048;6.092;2022-08-19T05:11:23;15.50;99.90
55812;DHT22;41742;52.048;6.092;2022-08-19T05:13:51;15.50;99.90
55812;DHT22;41742;52.048;6.092;2022-08-19T05:16:20;15.50;99.90
55812;DHT22;41742;52.048;6.092;2022-08-19T05:18:47;15.60;99.90
55812;DHT22;41742;52.048;6.092;2022-08-19T05:21:32;15.60;99.90
55812;DHT22;41742;52.048;6.092;2022-08-19T05:24:17;15.70;99.90
55812;DHT22;41742;52.048;6.092;2022-08-19T05:26:46;15.70;99.90
55812;DHT22;41742;52.048;6.092;2022-08-19T05:29:14;15.70;99.90
55812;DHT22;41742;52.048;6.092;2022-08-19T05:31:40;15.80;99.90
55812;DHT22;41742;52.048;6.092;2022-08-19T05:34:06;15.80;99.90
55812;DHT22;41742;52.048;6.092;2022-08-19T05:36:39;15.80;99.90
55812;DHT22;41742;52.048;6.092;2022-08-19T05:39:06;15.90;99.90
55812;DHT22;41742;52.048;6.092;2022-08-19T05:41:32;15.90;99.90
55812;DHT22;41742;52.048;6.092;2022-08-19T05:44:00;15.80;99.90
55812;DHT22;41742;52.048;6.092;2022-08-19T05:46:26;15.90;99.90
55812;DHT22;41742;52.048;6.092;2022-08-19T05:48:52;15.90;99.90
55812;DHT22;41742;52.048;6.092;2022-08-19T05:51:17;16.00;99.90
55812;DHT22;41742;52.048;6.092;2022-08-19T05:53:43;16.00;99.90
55812;DHT22;41742;52.048;6.092;2022-08-19T05:56:15;16.10;99.90
55812;DHT22;41742;52.048;6.092;2022-08-19T05:58:43;16.20;99.90
55812;DHT22;41742;52.048;6.092;2022-08-19T06:01:13;16.20;99.90
55812;DHT22;41742;52.048;6.092;2022-08-19T06:03:39;16.30;99.90
55812;DHT22;41742;52.048;6.092;2022-08-19T06:06:06;16.30;99.90
55812;DHT22;41742;52.048;6.092;2022-08-19T06:08:33;16.30;99.90
55812;DHT22;41742;52.048;6.092;2022-08-19T06:11:15;16.40;99.90
55812;DHT22;41742;52.048;6.092;2022-08-19T06:13:42;16.40;99.90
55812;DHT22;41742;52.048;6.092;2022-08-19T06:16:07;16.40;99.90
55812;DHT22;41742;52.048;6.092;2022-08-19T06:18:33;16.60;99.90
55812;DHT22;41742;52.048;6.092;2022-08-19T06:20:59;16.70;99.90
55812;DHT22;41742;52.048;6.092;2022-08-19T06:23:24;16.70;99.90
55812;DHT22;41742;52.048;6.092;2022-08-19T06:25:50;16.80;99.90
55812;DHT22;41742;52.048;6.092;2022-08-19T06:28:19;16.90;99.90
55812;DHT22;41742;52.048;6.092;2022-08-19T06:30:45;16.90;99.90
55812;DHT22;41742;52.048;6.092;2022-08-19T06:33:11;17.00;99.90
55812;DHT22;41742;52.048;6.092;2022-08-19T06:35:40;17.10;99.90
55812;DHT22;41742;52.048;6.092;2022-08-19T06:38:06;17.20;99.90
55812;DHT22;41742;52.048;6.092;2022-08-19T06:40:31;17.40;99.90
55812;DHT22;41742;52.048;6.092;2022-08-19T06:42:57;17.60;99.90
55812;DHT22;41742;52.048;6.092;2022-08-19T06:45:25;17.80;99.90
55812;DHT22;41742;52.048;6.092;2022-08-19T06:47:52;17.80;99.90
55812;DHT22;41742;52.048;6.092;2022-08-19T06:50:22;18.00;99.90
55812;DHT22;41742;52.048;6.092;2022-08-19T06:52:48;18.10;99.90
55812;DHT22;41742;52.048;6.092;2022-08-19T06:55:14;18.20;99.90
55812;DHT22;41742;52.048;6.092;2022-08-19T06:57:41;18.30;99.90
55812;DHT22;41742;52.048;6.092;2022-08-19T07:00:09;18.30;99.90
55812;DHT22;41742;52.048;6.092;2022-08-19T07:02:44;18.40;99.90
55812;DHT22;41742;52.048;6.092;2022-08-19T07:05:10;18.50;99.90
55812;DHT22;41742;52.048;6.092;2022-08-19T07:07:35;18.60;99.90
55812;DHT22;41742;52.048;6.092;2022-08-19T07:10:01;18.60;99.90
55812;DHT22;41742;52.048;6.092;2022-08-19T07:12:30;18.70;99.90
55812;DHT22;41742;52.048;6.092;2022-08-19T07:14:58;18.70;99.90
55812;DHT22;41742;52.048;6.092;2022-08-19T07:17:23;18.80;99.90
55812;DHT22;41742;52.048;6.092;2022-08-19T07:19:49;18.90;99.90
55812;DHT22;41742;52.048;6.092;2022-08-19T07:22:15;18.90;99.90
55812;DHT22;41742;52.048;6.092;2022-08-19T07:24:41;18.90;99.90
55812;DHT22;41742;52.048;6.092;2022-08-19T07:27:07;19.00;99.90
55812;DHT22;41742;52.048;6.092;2022-08-19T07:29:35;19.10;99.90
55812;DHT22;41742;52.048;6.092;2022-08-19T07:32:03;19.20;99.90
55812;DHT22;41742;52.048;6.092;2022-08-19T07:34:30;19.20;99.90
55812;DHT22;41742;52.048;6.092;2022-08-19T07:36:56;19.30;99.90
55812;DHT22;41742;52.048;6.092;2022-08-19T07:39:28;19.40;99.90
55812;DHT22;41742;52.048;6.092;2022-08-19T07:41:56;19.40;99.90
55812;DHT22;41742;52.048;6.092;2022-08-19T07:44:22;19.60;99.90
55812;DHT22;41742;52.048;6.092;2022-08-19T07:46:50;19.60;99.90
55812;DHT22;41742;52.048;6.092;2022-08-19T07:49:17;19.70;99.90
55812;DHT22;41742;52.048;6.092;2022-08-19T07:52:03;19.80;99.90
55812;DHT22;41742;52.048;6.092;2022-08-19T07:54:32;19.80;99.90
55812;DHT22;41742;52.048;6.092;2022-08-19T07:56:59;19.90;99.90
55812;DHT22;41742;52.048;6.092;2022-08-19T07:59:27;20.00;99.90
55812;DHT22;41742;52.048;6.092;2022-08-19T08:01:54;20.00;99.90
55812;DHT22;41742;52.048;6.092;2022-08-19T08:04:21;20.00;99.90
55812;DHT22;41742;52.048;6.092;2022-08-19T08:07:06;20.10;99.90
55812;DHT22;41742;52.048;6.092;2022-08-19T08:09:51;20.10;99.90
55812;DHT22;41742;52.048;6.092;2022-08-19T08:12:38;20.10;99.90
55812;DHT22;41742;52.048;6.092;2022-08-19T08:15:12;20.20;99.90
55812;DHT22;41742;52.048;6.092;2022-08-19T08:17:42;20.20;99.90
55812;DHT22;41742;52.048;6.092;2022-08-19T08:20:08;20.30;99.90
55812;DHT22;41742;52.048;6.092;2022-08-19T08:22:33;20.30;99.90
55812;DHT22;41742;52.048;6.092;2022-08-19T08:25:23;20.40;99.90
55812;DHT22;41742;52.048;6.092;2022-08-19T08:27:49;20.40;99.90
55812;DHT22;41742;52.048;6.092;2022-08-19T08:30:21;20.50;99.90
55812;DHT22;41742;52.048;6.092;2022-08-19T08:32:48;20.40;99.90
55812;DHT22;41742;52.048;6.092;2022-08-19T08:35:16;20.50;99.90
55812;DHT22;41742;52.048;6.092;2022-08-19T08:37:44;20.60;99.90
55812;DHT22;41742;52.048;6.092;2022-08-19T08:40:20;20.80;99.90
55812;DHT22;41742;52.048;6.092;2022-08-19T08:42:53;20.90;99.90
55812;DHT22;41742;52.048;6.092;2022-08-19T08:45:21;20.90;99.90
55812;DHT22;41742;52.048;6.092;2022-08-19T08:47:50;21.00;99.90
55812;DHT22;41742;52.048;6.092;2022-08-19T08:50:22;21.10;99.90
55812;DHT22;41742;52.048;6.092;2022-08-19T08:52:52;21.00;99.90
55812;DHT22;41742;52.048;6.092;2022-08-19T08:55:24;21.10;99.90
55812;DHT22;41742;52.048;6.092;2022-08-19T08:57:58;21.20;99.90
55812;DHT22;41742;52.048;6.092;2022-08-19T09:00:41;21.20;99.90
55812;DHT22;41742;52.048;6.092;2022-08-19T09:03:16;21.30;99.90
55812;DHT22;41742;52.048;6.092;2022-08-19T09:14:19;21.50;99.90
55812;DHT22;41742;52.048;6.092;2022-08-19T09:16:45;21.70;99.90
55812;DHT22;41742;52.048;6.092;2022-08-19T09:19:11;21.80;99.90
55812;DHT22;41742;52.048;6.092;2022-08-19T09:21:37;21.90;99.90
55812;DHT22;41742;52.048;6.092;2022-08-19T09:24:04;22.00;99.90
55812;DHT22;41742;52.048;6.092;2022-08-19T09:26:31;22.10;99.90
55812;DHT22;41742;52.048;6.092;2022-08-19T09:28:58;22.20;99.90
55812;DHT22;41742;52.048;6.092;2022-08-19T09:31:27;22.30;99.90
55812;DHT22;41742;52.048;6.092;2022-08-19T09:33:53;22.20;99.90
55812;DHT22;41742;52.048;6.092;2022-08-19T09:36:23;22.20;99.90
55812;DHT22;41742;52.048;6.092;2022-08-19T09:38:50;22.40;99.90
55812;DHT22;41742;52.048;6.092;2022-08-19T09:41:23;22.40;99.90
55812;DHT22;41742;52.048;6.092;2022-08-19T09:43:51;22.50;99.90
55812;DHT22;41742;52.048;6.092;2022-08-19T09:46:23;22.60;99.90
55812;DHT22;41742;52.048;6.092;2022-08-19T09:48:50;22.70;99.90
55812;DHT22;41742;52.048;6.092;2022-08-19T09:51:19;22.60;99.90
55812;DHT22;41742;52.048;6.092;2022-08-19T09:53:47;22.80;99.90
55812;DHT22;41742;52.048;6.092;2022-08-19T09:56:16;22.90;99.90
55812;DHT22;41742;52.048;6.092;2022-08-19T09:58:42;23.10;99.90
55812;DHT22;41742;52.048;6.092;2022-08-19T10:01:08;23.30;99.90
55812;DHT22;41742;52.048;6.092;2022-08-19T10:03:35;23.40;99.90
55812;DHT22;41742;52.048;6.092;2022-08-19T10:06:04;23.30;99.90
55812;DHT22;41742;52.048;6.092;2022-08-19T10:08:33;23.50;99.90
55812;DHT22;41742;52.048;6.092;2022-08-19T10:11:00;23.50;99.90
55812;DHT22;41742;52.048;6.092;2022-08-19T10:13:28;23.50;99.90
55812;DHT22;41742;52.048;6.092;2022-08-19T10:15:56;23.70;99.90
55812;DHT22;41742;52.048;6.092;2022-08-19T10:18:23;23.50;99.90
55812;DHT22;41742;52.048;6.092;2022-08-19T10:20:51;23.50;99.90
55812;DHT22;41742;52.048;6.092;2022-08-19T10:23:20;23.50;99.90
55812;DHT22;41742;52.048;6.092;2022-08-19T10:25:46;23.70;99.90
55812;DHT22;41742;52.048;6.092;2022-08-19T10:28:12;23.70;99.90
55812;DHT22;41742;52.048;6.092;2022-08-19T10:30:39;23.90;99.90
55812;DHT22;41742;52.048;6.092;2022-08-19T10:33:06;24.00;99.90
55812;DHT22;41742;52.048;6.092;2022-08-19T10:35:32;23.60;99.90
55812;DHT22;41742;52.048;6.092;2022-08-19T10:37:58;23.80;99.90
55812;DHT22;41742;52.048;6.092;2022-08-19T10:40:26;24.00;99.90
55812;DHT22;41742;52.048;6.092;2022-08-19T10:42:52;24.20;99.90
55812;DHT22;41742;52.048;6.092;2022-08-19T10:45:18;24.20;99.90
55812;DHT22;41742;52.048;6.092;2022-08-19T10:47:44;24.20;99.90
55812;DHT22;41742;52.048;6.092;2022-08-19T10:50:10;24.60;99.90
55812;DHT22;41742;52.048;6.092;2022-08-19T10:52:54;24.70;99.90
55812;DHT22;41742;52.048;6.092;2022-08-19T10:55:22;24.70;99.90
55812;DHT22;41742;52.048;6.092;2022-08-19T10:58:12;24.90;99.90
55812;DHT22;41742;52.048;6.092;2022-08-19T11:00:38;25.00;99.90
55812;DHT22;41742;52.048;6.092;2022-08-19T11:03:04;24.60;99.90
55812;DHT22;41742;52.048;6.092;2022-08-19T11:05:29;24.70;99.90
55812;DHT22;41742;52.048;6.092;2022-08-19T11:07:55;24.80;99.90
55812;DHT22;41742;52.048;6.092;2022-08-19T11:10:21;25.00;99.90
55812;DHT22;41742;52.048;6.092;2022-08-19T11:12:46;25.20;99.90
55812;DHT22;41742;52.048;6.092;2022-08-19T11:15:12;25.30;99.90
55812;DHT22;41742;52.048;6.092;2022-08-19T11:17:39;25.50;99.90
55812;DHT22;41742;52.048;6.092;2022-08-19T11:20:10;25.50;99.90
55812;DHT22;41742;52.048;6.092;2022-08-19T11:22:37;25.40;99.90
55812;DHT22;41742;52.048;6.092;2022-08-19T11:25:04;25.50;99.90
55812;DHT22;41742;52.048;6.092;2022-08-19T11:27:29;26.30;99.90
55812;DHT22;41742;52.048;6.092;2022-08-19T11:29:55;26.40;99.90
55812;DHT22;41742;52.048;6.092;2022-08-19T11:32:21;26.30;99.90
55812;DHT22;41742;52.048;6.092;2022-08-19T11:34:46;26.30;99.90
55812;DHT22;41742;52.048;6.092;2022-08-19T11:37:12;26.20;99.90
55812;DHT22;41742;52.048;6.092;2022-08-19T11:39:38;26.40;99.90
55812;DHT22;41742;52.048;6.092;2022-08-19T11:42:05;26.30;99.90
55812;DHT22;41742;52.048;6.092;2022-08-19T11:44:51;26.40;99.90
55812;DHT22;41742;52.048;6.092;2022-08-19T11:47:17;26.90;99.90
55812;DHT22;41742;52.048;6.092;2022-08-19T11:49:43;27.20;99.90
55812;DHT22;41742;52.048;6.092;2022-08-19T11:52:10;26.90;99.90
55812;DHT22;41742;52.048;6.092;2022-08-19T11:54:36;26.60;99.90
55812;DHT22;41742;52.048;6.092;2022-08-19T11:57:03;26.90;99.90
55812;DHT22;41742;52.048;6.092;2022-08-19T11:59:29;27.60;99.90
55812;DHT22;41742;52.048;6.092;2022-08-19T12:01:54;27.70;99.10
55812;DHT22;41742;52.048;6.092;2022-08-19T12:04:21;27.60;99.60
55812;DHT22;41742;52.048;6.092;2022-08-19T12:06:46;27.70;99.90
55812;DHT22;41742;52.048;6.092;2022-08-19T12:09:12;27.80;99.60
55812;DHT22;41742;52.048;6.092;2022-08-19T12:11:39;27.80;99.50
55812;DHT22;41742;52.048;6.092;2022-08-19T12:14:08;28.10;98.00
55812;DHT22;41742;52.048;6.092;2022-08-19T12:16:34;27.90;98.30
55812;DHT22;41742;52.048;6.092;2022-08-19T12:19:01;28.40;97.80
55812;DHT22;41742;52.048;6.092;2022-08-19T12:21:30;28.60;98.00
55812;DHT22;41742;52.048;6.092;2022-08-19T12:23:58;27.90;98.00
55812;DHT22;41742;52.048;6.092;2022-08-19T12:26:25;28.70;98.50
55812;DHT22;41742;52.048;6.092;2022-08-19T12:28:52;28.50;97.70
55812;DHT22;41742;52.048;6.092;2022-08-19T12:31:18;28.40;97.30
55812;DHT22;41742;52.048;6.092;2022-08-19T12:33:45;28.70;97.40
55812;DHT22;41742;52.048;6.092;2022-08-19T12:36:14;29.00;96.50
55812;DHT22;41742;52.048;6.092;2022-08-19T12:38:40;28.80;95.60
55812;DHT22;41742;52.048;6.092;2022-08-19T12:41:10;28.80;95.90
55812;DHT22;41742;52.048;6.092;2022-08-19T12:43:36;29.00;96.20
55812;DHT22;41742;52.048;6.092;2022-08-19T12:46:04;28.40;95.50
55812;DHT22;41742;52.048;6.092;2022-08-19T12:48:31;28.90;95.50
55812;DHT22;41742;52.048;6.092;2022-08-19T12:50:57;29.30;95.60
55812;DHT22;41742;52.048;6.092;2022-08-19T12:53:23;29.40;95.90
55812;DHT22;41742;52.048;6.092;2022-08-19T12:55:55;30.20;95.60
55812;DHT22;41742;52.048;6.092;2022-08-19T12:58:21;30.20;94.30
55812;DHT22;41742;52.048;6.092;2022-08-19T13:00:47;30.30;94.50
55812;DHT22;41742;52.048;6.092;2022-08-19T13:03:14;30.60;94.10
55812;DHT22;41742;52.048;6.092;2022-08-19T13:05:40;30.60;93.90
55812;DHT22;41742;52.048;6.092;2022-08-19T13:08:06;29.80;93.50
55812;DHT22;41742;52.048;6.092;2022-08-19T13:10:34;29.70;93.70
55812;DHT22;41742;52.048;6.092;2022-08-19T13:13:03;30.30;93.80
55812;DHT22;41742;52.048;6.092;2022-08-19T13:15:34;30.60;92.10
55812;DHT22;41742;52.048;6.092;2022-08-19T13:18:00;30.00;92.50
55812;DHT22;41742;52.048;6.092;2022-08-19T13:20:26;28.60;92.50
55812;DHT22;41742;52.048;6.092;2022-08-19T13:22:53;29.20;92.50
55812;DHT22;41742;52.048;6.092;2022-08-19T13:25:18;29.40;92.80
55812;DHT22;41742;52.048;6.092;2022-08-19T13:27:46;29.60;92.30
55812;DHT22;41742;52.048;6.092;2022-08-19T13:30:13;29.30;92.60
55812;DHT22;41742;52.048;6.092;2022-08-19T13:32:57;28.70;93.20
55812;DHT22;41742;52.048;6.092;2022-08-19T13:35:47;29.20;93.10
55812;DHT22;41742;52.048;6.092;2022-08-19T13:38:16;28.70;93.50
55812;DHT22;41742;52.048;6.092;2022-08-19T13:40:42;29.40;93.70
55812;DHT22;41742;52.048;6.092;2022-08-19T13:43:08;29.90;92.70
55812;DHT22;41742;52.048;6.092;2022-08-19T13:45:35;30.00;93.30
55812;DHT22;41742;52.048;6.092;2022-08-19T13:48:03;29.80;92.60
55812;DHT22;41742;52.048;6.092;2022-08-19T13:50:35;29.60;92.70
55812;DHT22;41742;52.048;6.092;2022-08-19T13:53:02;29.60;93.10
55812;DHT22;41742;52.048;6.092;2022-08-19T13:55:30;29.40;92.90
55812;DHT22;41742;52.048;6.092;2022-08-19T13:57:59;29.00;93.20
55812;DHT22;41742;52.048;6.092;2022-08-19T14:00:27;28.90;93.80
55812;DHT22;41742;52.048;6.092;2022-08-19T14:02:54;29.00;93.90
55812;DHT22;41742;52.048;6.092;2022-08-19T14:05:21;29.00;93.90
55812;DHT22;41742;52.048;6.092;2022-08-19T14:07:47;29.10;93.70
55812;DHT22;41742;52.048;6.092;2022-08-19T14:10:15;29.60;92.80
55812;DHT22;41742;52.048;6.092;2022-08-19T14:12:41;29.30;92.60
55812;DHT22;41742;52.048;6.092;2022-08-19T14:15:08;28.80;92.90
55812;DHT22;41742;52.048;6.092;2022-08-19T14:17:37;28.50;93.00
55812;DHT22;41742;52.048;6.092;2022-08-19T14:20:04;28.30;93.20
55812;DHT22;41742;52.048;6.092;2022-08-19T14:22:35;28.50;93.30
55812;DHT22;41742;52.048;6.092;2022-08-19T14:25:03;28.40;93.50
55812;DHT22;41742;52.048;6.092;2022-08-19T14:27:29;28.20;93.70
55812;DHT22;41742;52.048;6.092;2022-08-19T14:29:55;28.00;94.20
55812;DHT22;41742;52.048;6.092;2022-08-19T14:32:20;28.00;94.90
55812;DHT22;41742;52.048;6.092;2022-08-19T14:34:47;27.80;94.60
55812;DHT22;41742;52.048;6.092;2022-08-19T14:37:13;27.40;94.90
55812;DHT22;41742;52.048;6.092;2022-08-19T14:39:43;27.20;95.60
55812;DHT22;41742;52.048;6.092;2022-08-19T14:42:10;27.20;96.20
55812;DHT22;41742;52.048;6.092;2022-08-19T14:44:37;26.90;96.40
55812;DHT22;41742;52.048;6.092;2022-08-19T14:47:03;26.80;97.10
55812;DHT22;41742;52.048;6.092;2022-08-19T14:49:29;26.40;98.10
55812;DHT22;41742;52.048;6.092;2022-08-19T14:51:54;26.50;98.30
55812;DHT22;41742;52.048;6.092;2022-08-19T14:54:21;26.40;98.90
55812;DHT22;41742;52.048;6.092;2022-08-19T14:56:47;26.10;99.90
55812;DHT22;41742;52.048;6.092;2022-08-19T14:59:13;25.90;99.90
55812;DHT22;41742;52.048;6.092;2022-08-19T15:01:39;25.80;99.90
55812;DHT22;41742;52.048;6.092;2022-08-19T15:04:04;25.70;99.90
55812;DHT22;41742;52.048;6.092;2022-08-19T15:06:30;25.60;99.90
55812;DHT22;41742;52.048;6.092;2022-08-19T15:08:57;25.60;99.90
55812;DHT22;41742;52.048;6.092;2022-08-19T15:11:24;25.80;99.90
55812;DHT22;41742;52.048;6.092;2022-08-19T15:13:52;25.70;99.90
55812;DHT22;41742;52.048;6.092;2022-08-19T15:16:19;25.90;99.90
55812;DHT22;41742;52.048;6.092;2022-08-19T15:18:46;26.20;99.90
55812;DHT22;41742;52.048;6.092;2022-08-19T15:21:16;26.30;99.90
55812;DHT22;41742;52.048;6.092;2022-08-19T15:23:46;26.10;99.90
55812;DHT22;41742;52.048;6.092;2022-08-19T15:26:13;25.70;99.90
55812;DHT22;41742;52.048;6.092;2022-08-19T15:28:38;25.60;99.90
55812;DHT22;41742;52.048;6.092;2022-08-19T15:31:04;25.50;99.90
55812;DHT22;41742;52.048;6.092;2022-08-19T15:33:32;25.40;99.90
55812;DHT22;41742;52.048;6.092;2022-08-19T15:36:00;25.20;99.90
55812;DHT22;41742;52.048;6.092;2022-08-19T15:38:26;25.10;99.90
55812;DHT22;41742;52.048;6.092;2022-08-19T15:40:52;24.90;99.90
55812;DHT22;41742;52.048;6.092;2022-08-19T15:43:19;24.60;99.90
55812;DHT22;41742;52.048;6.092;2022-08-19T15:45:46;24.30;99.90